Time;durP1;ratioP1;P1;durP2;ratioP2;P2;SDS_P1;SDS_P2;PMS_P1;PMS_P2;Temp;Humidity;BMP_temperature;BMP_pressure;BME280_temperature;BME280_humidity;BME280_pressure;Samples;Min_cycle;Max_cycle;Signal;HPM_P1;HPM_P2
2022/07/25 00:02:00;;;;;;;3.15;1.73;;;;;;;;;;5028634;28;20037;-61
2022/07/25 00:04:26;;;;;;;1.52;1.13;;;;;;;;;;5031303;28;20021;-60
2022/07/25 00:06:52;;;;;;;1.60;1.20;;;;;;;;;;5032428;28;20025;-60
2022/07/25 00:09:18;;;;;;;2.92;1.50;;;;;;;;;;5031788;28;20033;-60
2022/07/25 00:11:44;;;;;;;2.53;1.60;;;;;;;;;;5030618;28;20040;-60
2022/07/25 00:14:10;;;;;;;3.28;1.38;;;;;;;;;;5032225;28;20044;-60
2022/07/25 00:16:36;;;;;;;3.53;1.60;;;;;;;;;;5031669;28;20064;-59
2022/07/25 00:19:02;;;;;;;1.50;1.17;;;;;;;;;;5026334;28;20084;-60
2022/07/25 00:21:28;;;;;;;2.05;1.42;;;;;;;;;;5029885;28;20042;-60
2022/07/25 00:23:54;;;;;;;2.20;1.35;;;;;;;;;;5031182;28;20036;-60
2022/07/25 00:26:20;;;;;;;1.73;1.33;;;;;;;;;;5031498;28;20034;-60
2022/07/25 00:28:46;;;;;;;1.63;1.15;;;;;;;;;;5032175;28;20032;-61
2022/07/25 00:31:12;;;;;;;2.53;1.40;;;;;;;;;;5026504;28;20029;-60
2022/07/25 00:33:39;;;;;;;1.75;1.42;;;;;;;;;;5031975;28;20033;-60
2022/07/25 00:36:05;;;;;;;1.77;1.23;;;;;;;;;;5028701;28;20038;-61
2022/07/25 00:38:31;;;;;;;3.28;1.20;;;;;;;;;;5030686;28;20485;-60
2022/07/25 00:40:57;;;;;;;4.05;1.25;;;;;;;;;;5027748;28;20038;-60
2022/07/25 00:43:23;;;;;;;1.83;1.38;;;;;;;;;;5030998;28;20113;-60
2022/07/25 00:45:49;;;;;;;1.48;0.95;;;;;;;;;;5031490;28;20036;-60
2022/07/25 00:48:15;;;;;;;1.50;1.00;;;;;;;;;;5025730;28;20469;-60
2022/07/25 00:50:41;;;;;;;3.88;1.15;;;;;;;;;;5031266;28;20407;-60
2022/07/25 00:53:07;;;;;;;2.08;1.10;;;;;;;;;;5030253;28;20025;-60
2022/07/25 00:55:33;;;;;;;1.38;1.10;;;;;;;;;;5028978;28;20040;-59
2022/07/25 00:57:59;;;;;;;2.88;1.10;;;;;;;;;;5025378;28;20042;-60
2022/07/25 01:00:25;;;;;;;2.20;1.33;;;;;;;;;;5038550;28;20090;-58
2022/07/25 01:02:51;;;;;;;2.55;1.23;;;;;;;;;;5037064;28;20626;-58
2022/07/25 01:05:17;;;;;;;1.73;1.10;;;;;;;;;;5031404;28;20036;-57
2022/07/25 01:07:43;;;;;;;3.80;1.20;;;;;;;;;;5029184;28;20026;-58
2022/07/25 01:10:10;;;;;;;2.97;1.20;;;;;;;;;;5029859;28;20037;-59
2022/07/25 01:12:49;;;;;;;3.10;1.10;;;;;;;;;;5031227;28;20116;-59
2022/07/25 01:15:16;;;;;;;2.13;1.20;;;;;;;;;;5031416;28;20026;-59
2022/07/25 01:17:42;;;;;;;2.63;1.20;;;;;;;;;;5027483;28;20484;-58
2022/07/25 01:20:17;;;;;;;4.18;1.88;;;;;;;;;;5019779;28;20037;-58
2022/07/25 01:22:43;;;;;;;2.33;1.40;;;;;;;;;;5030976;28;20441;-59
2022/07/25 01:25:10;;;;;;;1.75;1.10;;;;;;;;;;5031133;28;20108;-58
2022/07/25 01:27:36;;;;;;;2.65;1.55;;;;;;;;;;5027791;28;20029;-57
2022/07/25 01:30:03;;;;;;;2.60;1.25;;;;;;;;;;5028926;28;20033;-58
2022/07/25 01:32:29;;;;;;;1.90;1.40;;;;;;;;;;5030808;28;20623;-58
2022/07/25 01:34:55;;;;;;;1.98;1.30;;;;;;;;;;5029910;28;20025;-58
2022/07/25 01:37:21;;;;;;;1.92;1.23;;;;;;;;;;5030137;28;20041;-58
2022/07/25 01:39:47;;;;;;;2.78;1.30;;;;;;;;;;5024926;28;20573;-59
2022/07/25 01:42:13;;;;;;;4.60;1.40;;;;;;;;;;5030005;28;20112;-58
2022/07/25 01:44:39;;;;;;;2.60;1.25;;;;;;;;;;5031002;28;20410;-58
2022/07/25 01:47:05;;;;;;;2.88;1.20;;;;;;;;;;5030603;28;20097;-57
2022/07/25 01:49:31;;;;;;;2.60;1.40;;;;;;;;;;5030839;28;20025;-57
2022/07/25 01:51:57;;;;;;;3.88;1.25;;;;;;;;;;5030498;28;20028;-59
2022/07/25 01:54:23;;;;;;;2.92;1.52;;;;;;;;;;5027267;28;20034;-59
2022/07/25 01:56:49;;;;;;;1.40;1.15;;;;;;;;;;5028233;28;20046;-59
2022/07/25 01:59:15;;;;;;;2.65;1.30;;;;;;;;;;5031104;28;20033;-57
2022/07/25 02:01:41;;;;;;;1.30;1.20;;;;;;;;;;5026078;28;20493;-58
2022/07/25 02:04:07;;;;;;;2.28;1.35;;;;;;;;;;5040711;28;20045;-58
2022/07/25 02:06:34;;;;;;;2.28;1.42;;;;;;;;;;5029479;28;20255;-58
2022/07/25 02:09:00;;;;;;;1.67;1.20;;;;;;;;;;5027741;28;20034;-58
2022/07/25 02:11:26;;;;;;;1.50;1.20;;;;;;;;;;5030369;28;20476;-58
2022/07/25 02:13:52;;;;;;;2.30;1.23;;;;;;;;;;5029210;28;20033;-59
2022/07/25 02:16:18;;;;;;;1.80;1.35;;;;;;;;;;5030637;28;20032;-58
2022/07/25 02:18:44;;;;;;;2.53;0.93;;;;;;;;;;5029383;28;20029;-58
2022/07/25 02:21:10;;;;;;;1.20;1.02;;;;;;;;;;5029524;28;20025;-58
2022/07/25 02:23:37;;;;;;;1.88;1.30;;;;;;;;;;5030168;28;20036;-58
2022/07/25 02:26:03;;;;;;;6.40;1.30;;;;;;;;;;5029617;28;20026;-58
2022/07/25 02:28:29;;;;;;;4.45;1.48;;;;;;;;;;5027656;28;20056;-58
2022/07/25 02:30:55;;;;;;;2.88;1.48;;;;;;;;;;5030109;28;20155;-58
2022/07/25 02:33:21;;;;;;;3.13;1.50;;;;;;;;;;5030315;28;20477;-59
2022/07/25 02:35:47;;;;;;;3.70;1.45;;;;;;;;;;5029619;28;20048;-57
2022/07/25 02:38:18;;;;;;;3.63;1.23;;;;;;;;;;5030116;28;20036;-57
2022/07/25 02:40:45;;;;;;;2.35;1.58;;;;;;;;;;5029943;28;20037;-58
2022/07/25 02:43:11;;;;;;;1.92;1.30;;;;;;;;;;5030414;28;20473;-58
2022/07/25 02:45:37;;;;;;;1.60;0.98;;;;;;;;;;5028027;28;20022;-57
2022/07/25 02:48:03;;;;;;;2.22;1.23;;;;;;;;;;5030477;28;20029;-57
2022/07/25 02:50:29;;;;;;;4.35;1.48;;;;;;;;;;5032694;28;20524;-57
2022/07/25 02:52:55;;;;;;;2.00;1.30;;;;;;;;;;5033860;28;20029;-58
2022/07/25 02:55:22;;;;;;;1.38;1.13;;;;;;;;;;5033830;28;20036;-58
2022/07/25 02:57:48;;;;;;;2.53;1.20;;;;;;;;;;5032904;28;20049;-58
2022/07/25 03:00:14;;;;;;;4.70;1.45;;;;;;;;;;5039038;28;20040;-58
2022/07/25 03:02:40;;;;;;;1.65;1.30;;;;;;;;;;5036587;28;20056;-58
2022/07/25 03:05:10;;;;;;;1.15;0.98;;;;;;;;;;5033487;28;20104;-58
2022/07/25 03:07:36;;;;;;;1.55;0.98;;;;;;;;;;5033628;28;20049;-58
2022/07/25 03:10:03;;;;;;;2.35;1.52;;;;;;;;;;5022233;28;20106;-57
2022/07/25 03:12:29;;;;;;;2.53;1.58;;;;;;;;;;5033609;28;20542;-58
2022/07/25 03:14:55;;;;;;;1.60;1.20;;;;;;;;;;5033446;28;20030;-58
2022/07/25 03:17:21;;;;;;;2.95;1.30;;;;;;;;;;5031925;28;20076;-59
2022/07/25 03:19:47;;;;;;;2.70;1.20;;;;;;;;;;5032781;28;20473;-57
2022/07/25 03:22:13;;;;;;;2.83;1.55;;;;;;;;;;5033358;28;20029;-58
2022/07/25 03:24:39;;;;;;;1.77;1.20;;;;;;;;;;5032135;28;20021;-58
2022/07/25 03:27:05;;;;;;;1.48;1.20;;;;;;;;;;5033413;28;20038;-59
2022/07/25 03:29:31;;;;;;;1.83;1.50;;;;;;;;;;5033069;28;20101;-58
2022/07/25 03:31:58;;;;;;;2.17;1.30;;;;;;;;;;5031808;28;20056;-58
2022/07/25 03:34:24;;;;;;;2.95;1.48;;;;;;;;;;5019990;28;20033;-57
2022/07/25 03:36:50;;;;;;;3.53;1.33;;;;;;;;;;5030910;28;20030;-58
2022/07/25 03:39:16;;;;;;;3.10;1.60;;;;;;;;;;5030678;28;20032;-58
2022/07/25 03:41:42;;;;;;;3.50;1.50;;;;;;;;;;5032623;28;20030;-58
2022/07/25 03:44:08;;;;;;;2.00;1.42;;;;;;;;;;5032981;28;20022;-58
2022/07/25 03:46:34;;;;;;;2.50;1.45;;;;;;;;;;5032720;28;20347;-58
2022/07/25 03:49:00;;;;;;;4.30;1.50;;;;;;;;;;5032310;28;20083;-58
2022/07/25 03:51:26;;;;;;;2.33;1.48;;;;;;;;;;5030448;28;20029;-59
2022/07/25 03:54:01;;;;;;;6.20;1.63;;;;;;;;;;5032734;28;20025;-59
2022/07/25 03:56:28;;;;;;;6.78;1.90;;;;;;;;;;5032660;28;20923;-58
2022/07/25 03:58:54;;;;;;;2.45;1.60;;;;;;;;;;5032688;28;20033;-58
2022/07/25 04:01:20;;;;;;;4.85;1.67;;;;;;;;;;5043644;28;20037;-58
2022/07/25 04:03:46;;;;;;;1.83;1.30;;;;;;;;;;5029144;28;20037;-58
2022/07/25 04:06:12;;;;;;;2.42;1.58;;;;;;;;;;5031936;28;20540;-57
2022/07/25 04:08:38;;;;;;;1.63;1.38;;;;;;;;;;5030872;28;20033;-58
2022/07/25 04:11:04;;;;;;;2.55;1.60;;;;;;;;;;5028761;28;20432;-58
2022/07/25 04:13:30;;;;;;;3.15;1.52;;;;;;;;;;5025988;28;20034;-59
2022/07/25 04:15:56;;;;;;;2.17;1.35;;;;;;;;;;5024227;28;20028;-58
2022/07/25 04:18:22;;;;;;;2.42;1.60;;;;;;;;;;5031173;28;20475;-58
2022/07/25 04:20:48;;;;;;;4.10;1.45;;;;;;;;;;5032002;28;20022;-59
2022/07/25 04:23:14;;;;;;;2.95;1.63;;;;;;;;;;5032078;28;20032;-58
2022/07/25 04:25:40;;;;;;;1.85;1.50;;;;;;;;;;5024843;28;20033;-58
2022/07/25 04:28:05;;;;;;;2.33;1.60;;;;;;;;;;5026658;28;20025;-58
2022/07/25 04:30:31;;;;;;;2.22;1.50;;;;;;;;;;5021767;28;20030;-58
2022/07/25 04:32:58;;;;;;;3.85;1.75;;;;;;;;;;5027337;28;20034;-57
2022/07/25 04:35:23;;;;;;;2.72;1.58;;;;;;;;;;5028492;28;20385;-58
2022/07/25 04:37:49;;;;;;;2.35;1.60;;;;;;;;;;5029012;28;20068;-58
2022/07/25 04:40:15;;;;;;;2.00;1.50;;;;;;;;;;5021407;28;20053;-58
2022/07/25 04:42:41;;;;;;;2.65;1.60;;;;;;;;;;5027547;28;20029;-57
2022/07/25 04:45:08;;;;;;;4.68;1.45;;;;;;;;;;5030079;28;20122;-58
2022/07/25 04:47:34;;;;;;;3.20;1.60;;;;;;;;;;5030030;28;20029;-58
2022/07/25 04:50:00;;;;;;;2.38;1.90;;;;;;;;;;5029944;28;20057;-58
2022/07/25 04:52:26;;;;;;;2.17;1.40;;;;;;;;;;5030162;28;20040;-58
2022/07/25 04:54:52;;;;;;;3.33;1.90;;;;;;;;;;5029691;28;20140;-59
2022/07/25 04:57:18;;;;;;;2.00;1.70;;;;;;;;;;5032315;28;20050;-57
2022/07/25 04:59:44;;;;;;;5.45;1.90;;;;;;;;;;5043988;28;20501;-58
2022/07/25 05:02:10;;;;;;;2.65;1.60;;;;;;;;;;5028723;28;20033;-58
2022/07/25 05:04:36;;;;;;;4.07;1.95;;;;;;;;;;5027795;28;20057;-57
2022/07/25 05:07:02;;;;;;;2.30;1.52;;;;;;;;;;5027213;28;20033;-58
2022/07/25 05:09:28;;;;;;;6.10;2.08;;;;;;;;;;5025264;28;20045;-59
2022/07/25 05:11:54;;;;;;;2.42;1.70;;;;;;;;;;5030105;28;20029;-58
2022/07/25 05:14:20;;;;;;;1.75;1.55;;;;;;;;;;5028103;28;20481;-58
2022/07/25 05:16:46;;;;;;;2.80;1.58;;;;;;;;;;5026756;28;20160;-57
2022/07/25 05:19:12;;;;;;;4.03;2.22;;;;;;;;;;5021734;28;20036;-59
2022/07/25 05:21:38;;;;;;;3.35;1.63;;;;;;;;;;5027481;28;20067;-59
2022/07/25 05:24:05;;;;;;;7.13;1.95;;;;;;;;;;5028691;28;20030;-58
2022/07/25 05:26:31;;;;;;;2.55;1.27;;;;;;;;;;5029086;28;20030;-58
2022/07/25 05:28:57;;;;;;;3.00;1.80;;;;;;;;;;5018498;28;20037;-59
2022/07/25 05:31:23;;;;;;;6.25;1.70;;;;;;;;;;5027861;28;20030;-59
2022/07/25 05:33:49;;;;;;;2.55;1.70;;;;;;;;;;5023394;28;20029;-59
2022/07/25 05:36:15;;;;;;;5.00;1.77;;;;;;;;;;5015777;28;20062;-59
2022/07/25 05:38:41;;;;;;;3.50;2.05;;;;;;;;;;5042248;28;20400;-57
2022/07/25 05:41:08;;;;;;;3.72;1.85;;;;;;;;;;5030564;28;20036;-58
2022/07/25 05:43:34;;;;;;;5.43;2.03;;;;;;;;;;5028527;28;20048;-58
2022/07/25 05:46:01;;;;;;;3.25;1.90;;;;;;;;;;5030973;28;20585;-58
2022/07/25 05:48:27;;;;;;;5.78;1.77;;;;;;;;;;5020690;28;20482;-58
2022/07/25 05:50:53;;;;;;;3.00;1.83;;;;;;;;;;5023415;28;20023;-58
2022/07/25 05:53:19;;;;;;;2.50;1.90;;;;;;;;;;5035939;28;20105;-58
2022/07/25 05:55:45;;;;;;;2.20;1.80;;;;;;;;;;5030708;28;20025;-58
2022/07/25 05:58:11;;;;;;;3.63;2.05;;;;;;;;;;5029063;28;20046;-58
2022/07/25 06:00:38;;;;;;;2.40;1.70;;;;;;;;;;5016471;28;20500;-58
2022/07/25 06:03:04;;;;;;;3.10;2.10;;;;;;;;;;5028247;28;20060;-58
2022/07/25 06:05:30;;;;;;;4.03;2.13;;;;;;;;;;5023272;28;20025;-58
2022/07/25 06:07:56;;;;;;;3.70;2.17;;;;;;;;;;5030770;28;20088;-59
2022/07/25 06:10:23;;;;;;;5.53;2.67;;;;;;;;;;5023568;28;20025;-59
2022/07/25 06:12:49;;;;;;;2.47;2.00;;;;;;;;;;5029025;28;20048;-60
2022/07/25 06:15:15;;;;;;;3.50;2.35;;;;;;;;;;5030633;28;20026;-59
2022/07/25 06:17:41;;;;;;;6.82;2.40;;;;;;;;;;5026875;28;20029;-59
2022/07/25 06:20:07;;;;;;;2.55;2.15;;;;;;;;;;5022363;28;20026;-58
2022/07/25 06:22:33;;;;;;;3.97;2.40;;;;;;;;;;5030539;28;20415;-58
2022/07/25 06:25:00;;;;;;;3.05;2.38;;;;;;;;;;5028968;28;20036;-58
2022/07/25 06:27:26;;;;;;;3.83;2.58;;;;;;;;;;5029254;28;20055;-58
2022/07/25 06:29:52;;;;;;;5.03;2.30;;;;;;;;;;5027134;28;20030;-58
2022/07/25 06:32:18;;;;;;;4.53;2.58;;;;;;;;;;5032030;28;20029;-58
2022/07/25 06:34:44;;;;;;;3.70;2.50;;;;;;;;;;5027091;28;20033;-58
2022/07/25 06:37:10;;;;;;;3.53;2.50;;;;;;;;;;5036005;28;20120;-58
2022/07/25 06:39:36;;;;;;;3.90;2.40;;;;;;;;;;5029063;28;20071;-59
2022/07/25 06:42:03;;;;;;;5.13;2.72;;;;;;;;;;5031251;28;20029;-59
2022/07/25 06:44:32;;;;;;;4.75;2.65;;;;;;;;;;5032942;28;20083;-59
2022/07/25 06:46:58;;;;;;;6.18;2.70;;;;;;;;;;5031112;28;20038;-59
2022/07/25 06:49:24;;;;;;;5.25;3.20;;;;;;;;;;5031888;28;20029;-59
2022/07/25 06:51:50;;;;;;;8.98;2.85;;;;;;;;;;5025769;28;20021;-58
2022/07/25 06:54:17;;;;;;;8.48;3.40;;;;;;;;;;5027148;28;20033;-58
2022/07/25 06:56:43;;;;;;;5.07;2.63;;;;;;;;;;5033586;28;20061;-58
2022/07/25 06:59:09;;;;;;;7.15;3.25;;;;;;;;;;5032722;28;20029;-59
2022/07/25 07:01:35;;;;;;;4.20;2.75;;;;;;;;;;5030928;28;20036;-58
2022/07/25 07:04:02;;;;;;;3.78;2.50;;;;;;;;;;5032429;28;20048;-58
2022/07/25 07:06:28;;;;;;;3.72;2.72;;;;;;;;;;5025816;28;20051;-59
2022/07/25 07:08:54;;;;;;;6.10;3.00;;;;;;;;;;5030334;28;20475;-59
2022/07/25 07:11:20;;;;;;;6.43;2.78;;;;;;;;;;5024923;28;20028;-60
2022/07/25 07:13:46;;;;;;;4.20;2.67;;;;;;;;;;5033343;28;20029;-58
2022/07/25 07:16:12;;;;;;;6.57;2.90;;;;;;;;;;5030494;28;20030;-58
2022/07/25 07:18:38;;;;;;;6.60;3.22;;;;;;;;;;5025266;28;20080;-58
2022/07/25 07:21:05;;;;;;;7.47;3.72;;;;;;;;;;5036216;28;20045;-58
2022/07/25 07:23:31;;;;;;;6.07;3.00;;;;;;;;;;5035394;28;20452;-58
2022/07/25 07:25:57;;;;;;;4.10;3.05;;;;;;;;;;5033200;28;20113;-58
2022/07/25 07:28:23;;;;;;;9.73;3.40;;;;;;;;;;5033293;28;20022;-59
2022/07/25 07:30:49;;;;;;;6.18;3.58;;;;;;;;;;5031389;28;20508;-59
2022/07/25 07:33:15;;;;;;;4.50;3.25;;;;;;;;;;5031552;28;20481;-59
2022/07/25 07:35:43;;;;;;;6.10;3.53;;;;;;;;;;5028697;28;20049;-58
2022/07/25 07:38:09;;;;;;;8.75;3.67;;;;;;;;;;5025866;28;20040;-59
2022/07/25 07:40:35;;;;;;;7.20;3.80;;;;;;;;;;5026458;28;20029;-59
2022/07/25 07:43:02;;;;;;;5.18;3.40;;;;;;;;;;5035577;28;20033;-58
2022/07/25 07:45:29;;;;;;;5.30;3.90;;;;;;;;;;5037736;28;20516;-58
2022/07/25 07:47:55;;;;;;;5.32;4.03;;;;;;;;;;5026390;28;20048;-60
2022/07/25 07:50:23;;;;;;;5.68;4.82;;;;;;;;;;5030397;28;20055;-58
2022/07/25 07:52:50;;;;;;;5.00;3.72;;;;;;;;;;5026854;28;20045;-58
2022/07/25 07:58:01;;;;;;;6.05;3.88;;;;;;;;;;5021541;28;20110;-58
2022/07/25 08:00:29;;;;;;;8.45;4.05;;;;;;;;;;5030635;28;20040;-58
2022/07/25 08:02:55;;;;;;;5.88;4.10;;;;;;;;;;5031902;28;20037;-60
2022/07/25 08:05:22;;;;;;;7.00;3.85;;;;;;;;;;5021656;28;20029;-59
2022/07/25 08:07:50;;;;;;;9.45;4.55;;;;;;;;;;5022549;28;20128;-58
2022/07/25 08:10:17;;;;;;;5.85;4.10;;;;;;;;;;5023349;28;20090;-58
2022/07/25 08:12:43;;;;;;;5.28;3.95;;;;;;;;;;5032094;28;20043;-59
2022/07/25 08:15:09;;;;;;;6.63;4.13;;;;;;;;;;5032217;28;20104;-59
2022/07/25 08:17:35;;;;;;;6.60;4.10;;;;;;;;;;5023535;28;20029;-59
2022/07/25 08:20:06;;;;;;;4.80;3.70;;;;;;;;;;5024104;28;20080;-59
2022/07/25 08:22:36;;;;;;;7.45;3.95;;;;;;;;;;5026736;28;20029;-59
2022/07/25 08:25:02;;;;;;;5.75;3.80;;;;;;;;;;5030650;28;20100;-58
2022/07/25 08:27:28;;;;;;;5.63;3.40;;;;;;;;;;5021337;28;20033;-59
2022/07/25 08:29:54;;;;;;;6.80;4.03;;;;;;;;;;5025512;28;20028;-58
2022/07/25 08:32:20;;;;;;;7.07;3.75;;;;;;;;;;5020167;28;20017;-58
2022/07/25 08:34:46;;;;;;;5.53;3.60;;;;;;;;;;5025514;28;20458;-59
2022/07/25 08:37:11;;;;;;;7.85;3.90;;;;;;;;;;5024262;28;20026;-59
2022/07/25 08:39:40;;;;;;;4.57;3.50;;;;;;;;;;5017760;28;20030;-57
2022/07/25 08:42:06;;;;;;;4.47;3.47;;;;;;;;;;5030172;28;20480;-60
2022/07/25 08:44:32;;;;;;;6.13;3.45;;;;;;;;;;5024184;28;20438;-59
2022/07/25 08:46:59;;;;;;;4.80;3.08;;;;;;;;;;5026064;28;20445;-59
2022/07/25 08:49:27;;;;;;;7.70;3.53;;;;;;;;;;5020719;28;20018;-59
2022/07/25 08:51:53;;;;;;;5.47;3.67;;;;;;;;;;5024946;28;20029;-59
2022/07/25 08:54:19;;;;;;;7.05;4.18;;;;;;;;;;5025826;28;20028;-59
2022/07/25 08:56:45;;;;;;;4.60;3.85;;;;;;;;;;5028707;28;20612;-58
2022/07/25 08:59:11;;;;;;;5.50;3.85;;;;;;;;;;5014720;28;20030;-58
2022/07/25 09:01:40;;;;;;;7.20;3.80;;;;;;;;;;5020808;28;20029;-59
2022/07/25 09:04:08;;;;;;;8.30;4.22;;;;;;;;;;5028191;28;20083;-58
2022/07/25 09:06:34;;;;;;;4.22;3.55;;;;;;;;;;5031480;28;20029;-58
2022/07/25 09:09:03;;;;;;;6.00;4.07;;;;;;;;;;5029927;28;20386;-59
2022/07/25 09:11:34;;;;;;;6.18;4.30;;;;;;;;;;5031088;28;20025;-58
2022/07/25 09:14:01;;;;;;;6.20;4.38;;;;;;;;;;5030959;28;20493;-58
2022/07/25 09:16:31;;;;;;;5.82;4.10;;;;;;;;;;5031671;28;20036;-59
2022/07/25 09:19:07;;;;;;;6.63;4.00;;;;;;;;;;5029548;28;20067;-60
2022/07/25 09:21:35;;;;;;;5.18;4.20;;;;;;;;;;5030959;28;20071;-58
2022/07/25 09:24:08;;;;;;;6.38;4.47;;;;;;;;;;5029681;28;20057;-59
2022/07/25 09:26:36;;;;;;;;;;;;;;;;;;5031270;28;20025;-59
2022/07/25 09:29:02;;;;;;;6.65;4.95;;;;;;;;;;5029387;28;20764;-61
2022/07/25 09:31:33;;;;;;;10.55;5.18;;;;;;;;;;5030639;28;20033;-58
2022/07/25 09:34:00;;;;;;;5.13;4.28;;;;;;;;;;5030841;28;20060;-58
2022/07/25 09:36:26;;;;;;;9.38;4.53;;;;;;;;;;5031168;28;20045;-58
2022/07/25 09:38:52;;;;;;;8.10;4.55;;;;;;;;;;5026783;28;20456;-58
2022/07/25 09:41:18;;;;;;;6.53;4.47;;;;;;;;;;5028588;28;20029;-59
2022/07/25 09:43:44;;;;;;;9.25;4.75;;;;;;;;;;5029501;28;20492;-58
2022/07/25 09:46:11;;;;;;;6.38;4.50;;;;;;;;;;5031027;28;20029;-59
2022/07/25 09:48:38;;;;;;;8.07;4.78;;;;;;;;;;5030009;28;20097;-59
2022/07/25 09:51:05;;;;;;;5.20;4.63;;;;;;;;;;5028750;28;20167;-58
2022/07/25 09:53:31;;;;;;;5.30;4.30;;;;;;;;;;5030679;28;20040;-61
2022/07/25 09:55:57;;;;;;;6.07;4.57;;;;;;;;;;5030699;28;20070;-59
2022/07/25 09:58:24;;;;;;;6.20;4.65;;;;;;;;;;5031780;28;20120;-59
2022/07/25 10:00:51;;;;;;;7.35;5.07;;;;;;;;;;5031514;28;20087;-58
2022/07/25 10:03:36;;;;;;;8.45;4.55;;;;;;;;;;5034483;28;20517;-59
2022/07/25 10:06:10;;;;;;;5.97;4.93;;;;;;;;;;5026824;28;20025;-62
2022/07/25 10:08:37;;;;;;;6.47;4.97;;;;;;;;;;5033015;28;20037;-62
2022/07/25 10:11:05;;;;;;;6.15;5.10;;;;;;;;;;5034166;28;20026;-62
2022/07/25 10:13:33;;;;;;;7.80;4.60;;;;;;;;;;5034509;28;20069;-62
2022/07/25 10:15:59;;;;;;;7.95;4.97;;;;;;;;;;5034626;28;20037;-62
2022/07/25 10:18:26;;;;;;;7.55;4.97;;;;;;;;;;5032680;28;20497;-62
2022/07/25 10:20:55;;;;;;;7.10;4.82;;;;;;;;;;5034049;28;20026;-63
2022/07/25 10:23:25;;;;;;;10.38;5.13;;;;;;;;;;5034214;28;20030;-62
2022/07/25 10:26:24;;;;;;;7.40;5.20;;;;;;;;;;5033204;28;20079;-61
2022/07/25 10:28:52;;;;;;;7.90;5.05;;;;;;;;;;5022255;28;20132;-61
2022/07/25 10:31:23;;;;;;;11.52;5.45;;;;;;;;;;5033766;28;20381;-61
2022/07/25 10:33:53;;;;;;;5.85;4.78;;;;;;;;;;5033842;28;20041;-62
2022/07/25 10:36:19;;;;;;;7.32;5.20;;;;;;;;;;5034258;28;20741;-61
2022/07/25 10:38:46;;;;;;;6.05;5.03;;;;;;;;;;5030935;28;20473;-62
2022/07/25 10:41:14;;;;;;;6.05;4.53;;;;;;;;;;5032998;28;20034;-62
2022/07/25 10:43:40;;;;;;;5.28;4.53;;;;;;;;;;5032519;28;20108;-61
2022/07/25 10:46:18;;;;;;;6.60;5.00;;;;;;;;;;5034013;28;20026;-62
2022/07/25 10:48:44;;;;;;;5.65;4.45;;;;;;;;;;5033651;28;20052;-62
2022/07/25 10:51:13;;;;;;;8.18;5.32;;;;;;;;;;5039722;28;20029;-62
2022/07/25 10:53:45;;;;;;;7.43;4.70;;;;;;;;;;5040110;28;20029;-61
2022/07/25 10:56:21;;;;;;;6.40;4.47;;;;;;;;;;5031622;28;20120;-61
2022/07/25 10:58:47;;;;;;;8.57;4.35;;;;;;;;;;5030066;28;20493;-60
2022/07/25 11:01:13;;;;;;;6.38;4.68;;;;;;;;;;5023780;28;20026;-61
2022/07/25 11:03:43;;;;;;;6.50;4.38;;;;;;;;;;5027039;28;20040;-62
2022/07/25 11:06:09;;;;;;;6.10;4.68;;;;;;;;;;5032376;28;20029;-62
2022/07/25 11:08:35;;;;;;;6.70;4.50;;;;;;;;;;5031146;28;20033;-62
2022/07/25 11:11:02;;;;;;;5.97;4.40;;;;;;;;;;5033032;28;20432;-61
2022/07/25 11:13:28;;;;;;;5.50;4.82;;;;;;;;;;5033430;28;20034;-62
2022/07/25 11:15:58;;;;;;;5.75;4.05;;;;;;;;;;5033403;28;20026;-61
2022/07/25 11:18:39;;;;;;;6.82;4.35;;;;;;;;;;5027112;28;20040;-61
2022/07/25 11:21:06;;;;;;;5.88;4.28;;;;;;;;;;5031593;28;20037;-61
2022/07/25 11:23:33;;;;;;;8.70;3.97;;;;;;;;;;5033286;28;20022;-62
2022/07/25 11:26:10;;;;;;;5.80;4.35;;;;;;;;;;5033463;28;20546;-62
2022/07/25 11:28:36;;;;;;;7.50;4.05;;;;;;;;;;5033255;28;20044;-59
2022/07/25 11:31:04;;;;;;;4.53;3.78;;;;;;;;;;5032670;28;20026;-62
2022/07/25 11:33:30;;;;;;;6.47;3.95;;;;;;;;;;5032379;28;20029;-61
2022/07/25 11:35:58;;;;;;;6.15;4.68;;;;;;;;;;5031799;28;20042;-60
2022/07/25 11:38:24;;;;;;;7.35;4.10;;;;;;;;;;5033085;28;20627;-60
2022/07/25 11:40:50;;;;;;;5.10;4.00;;;;;;;;;;5031403;28;20034;-62
2022/07/25 11:43:19;;;;;;;7.00;4.45;;;;;;;;;;5032770;28;20123;-59
2022/07/25 11:45:55;;;;;;;5.90;4.18;;;;;;;;;;5032918;28;20036;-62
2022/07/25 11:48:29;;;;;;;4.32;3.92;;;;;;;;;;5032652;28;20013;-59
2022/07/25 11:50:55;;;;;;;7.88;4.40;;;;;;;;;;5036757;28;20017;-59
2022/07/25 11:53:21;;;;;;;7.25;4.30;;;;;;;;;;5040403;28;20044;-61
2022/07/25 11:55:47;;;;;;;9.75;4.00;;;;;;;;;;5032309;28;20060;-62
2022/07/25 11:58:14;;;;;;;9.70;4.30;;;;;;;;;;5032599;28;20099;-62
2022/07/25 12:00:44;;;;;;;5.15;4.45;;;;;;;;;;5030767;28;20127;-62
2022/07/25 12:03:11;;;;;;;6.97;4.07;;;;;;;;;;5032542;28;20032;-62
2022/07/25 12:05:37;;;;;;;5.22;3.83;;;;;;;;;;5028955;28;20033;-61
2022/07/25 12:08:14;;;;;;;5.18;4.05;;;;;;;;;;5025989;28;20029;-61
2022/07/25 12:10:40;;;;;;;5.90;4.05;;;;;;;;;;5021991;28;20033;-61
2022/07/25 12:13:08;;;;;;;6.25;3.90;;;;;;;;;;5032356;28;20017;-61
2022/07/25 12:15:38;;;;;;;4.47;3.78;;;;;;;;;;5032314;28;20052;-62
2022/07/25 12:18:05;;;;;;;4.90;3.83;;;;;;;;;;5032263;28;20041;-61
2022/07/25 12:20:32;;;;;;;7.18;4.30;;;;;;;;;;5031071;28;20034;-61
2022/07/25 12:23:00;;;;;;;6.43;3.88;;;;;;;;;;5031613;28;20094;-61
2022/07/25 12:25:28;;;;;;;6.50;4.03;;;;;;;;;;5028152;28;20029;-62
2022/07/25 12:27:54;;;;;;;4.65;3.85;;;;;;;;;;5029380;28;20373;-62
2022/07/25 12:30:20;;;;;;;6.32;3.72;;;;;;;;;;5036083;28;20032;-61
2022/07/25 12:32:46;;;;;;;4.28;3.40;;;;;;;;;;5035142;28;20508;-62
2022/07/25 12:35:13;;;;;;;7.95;3.92;;;;;;;;;;5031442;28;20032;-61
2022/07/25 12:37:40;;;;;;;5.15;3.78;;;;;;;;;;5032100;28;20121;-62
2022/07/25 12:40:08;;;;;;;7.30;4.30;;;;;;;;;;5031483;28;20025;-62
2022/07/25 12:42:34;;;;;;;4.07;3.55;;;;;;;;;;5030907;28;20021;-60
2022/07/25 12:45:00;;;;;;;8.05;4.20;;;;;;;;;;5028987;28;20037;-59
2022/07/25 12:47:27;;;;;;;7.95;4.18;;;;;;;;;;5029832;28;20029;-61
2022/07/25 12:49:55;;;;;;;5.57;3.85;;;;;;;;;;5022119;28;20067;-61
2022/07/25 12:52:21;;;;;;;5.00;3.88;;;;;;;;;;5033762;28;20033;-61
2022/07/25 12:54:47;;;;;;;8.93;4.18;;;;;;;;;;5019404;28;20041;-61
2022/07/25 12:57:14;;;;;;;6.30;3.97;;;;;;;;;;5027944;28;20128;-61
2022/07/25 12:59:40;;;;;;;4.65;3.63;;;;;;;;;;5031688;28;20029;-61
2022/07/25 13:02:06;;;;;;;6.00;3.90;;;;;;;;;;5031168;28;20022;-61
2022/07/25 13:04:32;;;;;;;4.43;3.53;;;;;;;;;;5030941;28;20048;-61
2022/07/25 13:06:59;;;;;;;7.70;3.72;;;;;;;;;;5014335;28;20060;-61
2022/07/25 13:09:25;;;;;;;7.63;3.78;;;;;;;;;;5030156;28;20098;-61
2022/07/25 13:11:52;;;;;;;6.38;3.85;;;;;;;;;;5030923;28;20447;-61
2022/07/25 13:14:17;;;;;;;5.55;4.00;;;;;;;;;;5031408;28;20112;-61
2022/07/25 13:16:44;;;;;;;5.93;3.97;;;;;;;;;;5029150;28;20124;-61
2022/07/25 13:19:11;;;;;;;4.38;3.38;;;;;;;;;;5030892;28;20209;-61
2022/07/25 13:21:37;;;;;;;4.50;3.95;;;;;;;;;;5030908;28;20033;-61
2022/07/25 13:24:03;;;;;;;5.18;3.90;;;;;;;;;;5031014;28;20469;-61
2022/07/25 13:26:29;;;;;;;7.20;3.70;;;;;;;;;;5030429;28;20036;-61
2022/07/25 13:28:55;;;;;;;6.43;3.70;;;;;;;;;;5030153;28;20576;-61
2022/07/25 13:31:22;;;;;;;5.70;4.22;;;;;;;;;;5030422;28;20026;-61
2022/07/25 13:33:48;;;;;;;4.15;3.60;;;;;;;;;;5031015;28;20022;-60
2022/07/25 13:36:14;;;;;;;6.10;3.90;;;;;;;;;;5030238;28;20338;-61
2022/07/25 13:38:42;;;;;;;7.65;3.60;;;;;;;;;;5030944;28;20067;-60
2022/07/25 13:41:08;;;;;;;6.63;3.90;;;;;;;;;;5030590;28;20037;-61
2022/07/25 13:43:34;;;;;;;6.70;3.10;;;;;;;;;;5031140;28;20037;-61
2022/07/25 13:46:00;;;;;;;6.82;3.75;;;;;;;;;;5019224;28;20096;-61
2022/07/25 13:48:27;;;;;;;3.90;2.95;;;;;;;;;;5028005;28;20029;-61
2022/07/25 13:50:53;;;;;;;7.72;3.28;;;;;;;;;;5033979;28;20052;-59
2022/07/25 13:53:20;;;;;;;3.83;2.90;;;;;;;;;;5044354;28;20037;-62
2022/07/25 13:55:46;;;;;;;4.72;3.45;;;;;;;;;;5022690;28;20468;-62
2022/07/25 13:58:12;;;;;;;5.25;2.78;;;;;;;;;;5030127;28;20077;-61
2022/07/25 14:00:38;;;;;;;8.40;3.25;;;;;;;;;;5027235;28;20030;-61
2022/07/25 14:03:04;;;;;;;4.57;3.45;;;;;;;;;;5017165;28;20037;-61
2022/07/25 14:05:30;;;;;;;4.95;3.30;;;;;;;;;;5024284;28;20469;-61
2022/07/25 14:07:56;;;;;;;4.53;3.35;;;;;;;;;;5027864;28;20063;-61
2022/07/25 14:10:22;;;;;;;6.03;3.40;;;;;;;;;;5029232;28;20034;-62
2022/07/25 14:12:49;;;;;;;3.58;2.90;;;;;;;;;;5020347;28;20108;-62
2022/07/25 14:15:14;;;;;;;4.95;3.08;;;;;;;;;;5026664;28;20054;-62
2022/07/25 14:17:41;;;;;;;6.57;3.33;;;;;;;;;;5026030;28;20053;-62
2022/07/25 14:20:07;;;;;;;3.92;2.90;;;;;;;;;;5025637;28;20049;-61
2022/07/25 14:22:33;;;;;;;3.72;3.00;;;;;;;;;;5043361;28;20037;-61
2022/07/25 14:24:59;;;;;;;5.00;3.15;;;;;;;;;;5024151;28;20028;-61
2022/07/25 14:27:25;;;;;;;3.33;3.03;;;;;;;;;;5029382;28;20033;-61
2022/07/25 14:29:52;;;;;;;7.70;3.90;;;;;;;;;;5028757;28;20408;-61
2022/07/25 14:32:18;;;;;;;4.63;3.28;;;;;;;;;;5026697;28;20030;-61
2022/07/25 14:34:44;;;;;;;5.80;3.78;;;;;;;;;;5018667;28;20465;-60
2022/07/25 14:37:10;;;;;;;8.13;3.72;;;;;;;;;;5026002;28;20104;-60
2022/07/25 14:39:36;;;;;;;5.72;3.97;;;;;;;;;;5026915;28;20052;-61
2022/07/25 14:42:03;;;;;;;6.90;3.72;;;;;;;;;;5022389;28;20026;-60
2022/07/25 14:44:29;;;;;;;8.70;3.60;;;;;;;;;;5023081;28;20030;-61